sensor_id;sensor_type;location;lat;lon;timestamp;pressure;altitude;pressure_sealevel;temperature;humidity
51986;BME280;38002;53.296;6.600;2023-08-01T00:03:02;99871.84;;;16.73;95.20
51986;BME280;38002;53.296;6.600;2023-08-01T00:08:03;99873.75;;;16.72;94.68
51986;BME280;38002;53.296;6.600;2023-08-01T00:13:03;99872.28;;;16.70;94.95
51986;BME280;38002;53.296;6.600;2023-08-01T00:18:04;99876.31;;;16.67;94.78
51986;BME280;38002;53.296;6.600;2023-08-01T00:23:05;99858.16;;;16.66;94.69
51986;BME280;38002;53.296;6.600;2023-08-01T00:28:05;99852.28;;;16.63;94.71
51986;BME280;38002;53.296;6.600;2023-08-01T00:33:06;99841.78;;;16.60;94.62
51986;BME280;38002;53.296;6.600;2023-08-01T00:38:06;99833.13;;;16.56;94.63
51986;BME280;38002;53.296;6.600;2023-08-01T00:43:07;99834.19;;;16.55;94.58
51986;BME280;38002;53.296;6.600;2023-08-01T00:48:07;99821.75;;;16.53;94.75
51986;BME280;38002;53.296;6.600;2023-08-01T00:53:08;99819.44;;;16.50;94.59
51986;BME280;38002;53.296;6.600;2023-08-01T00:58:09;99826.91;;;16.43;94.46
51986;BME280;38002;53.296;6.600;2023-08-01T01:03:09;99810.50;;;16.36;94.79
51986;BME280;38002;53.296;6.600;2023-08-01T01:08:09;99812.25;;;16.30;94.84
51986;BME280;38002;53.296;6.600;2023-08-01T01:13:10;99812.31;;;16.24;94.52
51986;BME280;38002;53.296;6.600;2023-08-01T01:18:10;99807.56;;;16.13;94.58
51986;BME280;38002;53.296;6.600;2023-08-01T01:23:11;99812.81;;;16.14;94.51
51986;BME280;38002;53.296;6.600;2023-08-01T01:28:12;99803.13;;;16.12;94.59
51986;BME280;38002;53.296;6.600;2023-08-01T01:33:14;99790.09;;;16.07;94.47
51986;BME280;38002;53.296;6.600;2023-08-01T01:38:15;99792.66;;;16.02;94.49
51986;BME280;38002;53.296;6.600;2023-08-01T01:43:16;99796.06;;;15.98;94.60
51986;BME280;38002;53.296;6.600;2023-08-01T01:48:16;99772.31;;;15.92;94.56
51986;BME280;38002;53.296;6.600;2023-08-01T01:53:17;99774.88;;;15.86;94.55
51986;BME280;38002;53.296;6.600;2023-08-01T01:58:17;99771.75;;;15.83;94.69
51986;BME280;38002;53.296;6.600;2023-08-01T02:03:18;99765.03;;;15.79;94.74
51986;BME280;38002;53.296;6.600;2023-08-01T02:08:18;99752.78;;;15.75;94.66
51986;BME280;38002;53.296;6.600;2023-08-01T02:13:18;99754.09;;;15.72;94.80
51986;BME280;38002;53.296;6.600;2023-08-01T02:18:19;99752.84;;;15.68;94.90
51986;BME280;38002;53.296;6.600;2023-08-01T02:23:21;99748.91;;;15.58;94.91
51986;BME280;38002;53.296;6.600;2023-08-01T02:28:21;99752.75;;;15.57;94.86
51986;BME280;38002;53.296;6.600;2023-08-01T02:33:21;99758.03;;;15.52;94.63
51986;BME280;38002;53.296;6.600;2023-08-01T02:38:22;99753.19;;;15.47;94.78
51986;BME280;38002;53.296;6.600;2023-08-01T02:43:22;99745.63;;;15.42;94.72
51986;BME280;38002;53.296;6.600;2023-08-01T02:48:23;99740.19;;;15.36;94.67
51986;BME280;38002;53.296;6.600;2023-08-01T02:53:25;99742.97;;;15.29;94.97
51986;BME280;38002;53.296;6.600;2023-08-01T02:58:26;99756.03;;;15.27;95.24
51986;BME280;38002;53.296;6.600;2023-08-01T03:03:26;99741.94;;;15.24;94.99
51986;BME280;38002;53.296;6.600;2023-08-01T03:08:27;99732.28;;;15.21;94.96
51986;BME280;38002;53.296;6.600;2023-08-01T03:13:27;99732.28;;;15.21;95.42
51986;BME280;38002;53.296;6.600;2023-08-01T03:18:28;99740.03;;;15.24;95.64
51986;BME280;38002;53.296;6.600;2023-08-01T03:23:29;99749.50;;;15.28;95.19
51986;BME280;38002;53.296;6.600;2023-08-01T03:28:30;99741.69;;;15.32;95.66
51986;BME280;38002;53.296;6.600;2023-08-01T03:33:32;99744.22;;;15.33;95.08
51986;BME280;38002;53.296;6.600;2023-08-01T03:38:33;99741.69;;;15.32;95.45
51986;BME280;38002;53.296;6.600;2023-08-01T03:43:33;99732.03;;;15.29;95.64
51986;BME280;38002;53.296;6.600;2023-08-01T03:48:34;99732.47;;;15.26;95.36
51986;BME280;38002;53.296;6.600;2023-08-01T03:53:34;99729.09;;;15.24;95.32
51986;BME280;38002;53.296;6.600;2023-08-01T03:58:35;99732.28;;;15.21;95.61
51986;BME280;38002;53.296;6.600;2023-08-01T04:03:35;99748.72;;;15.21;96.26
51986;BME280;38002;53.296;6.600;2023-08-01T04:08:36;99740.50;;;15.21;95.91
51986;BME280;38002;53.296;6.600;2023-08-01T04:13:36;99749.31;;;15.23;95.89
51986;BME280;38002;53.296;6.600;2023-08-01T04:18:37;99758.16;;;15.25;95.92
51986;BME280;38002;53.296;6.600;2023-08-01T04:23:37;99752.69;;;15.25;95.67
51986;BME280;38002;53.296;6.600;2023-08-01T04:28:38;99743.44;;;15.20;95.94
51986;BME280;38002;53.296;6.600;2023-08-01T04:33:38;99751.41;;;15.28;96.13
51986;BME280;38002;53.296;6.600;2023-08-01T04:38:39;99751.19;;;15.29;95.80
51986;BME280;38002;53.296;6.600;2023-08-01T04:43:42;99748.44;;;15.29;95.85
51986;BME280;38002;53.296;6.600;2023-08-01T04:48:42;99755.22;;;15.27;96.30
51986;BME280;38002;53.296;6.600;2023-08-01T04:53:43;99741.28;;;15.28;96.01
51986;BME280;38002;53.296;6.600;2023-08-01T04:58:43;99747.59;;;15.29;96.10
51986;BME280;38002;53.296;6.600;2023-08-01T05:03:43;99749.28;;;15.30;96.11
51986;BME280;38002;53.296;6.600;2023-08-01T05:08:44;99750.53;;;15.34;95.87
51986;BME280;38002;53.296;6.600;2023-08-01T05:13:44;99751.78;;;15.38;96.35
51986;BME280;38002;53.296;6.600;2023-08-01T05:18:45;99751.72;;;15.44;96.33
51986;BME280;38002;53.296;6.600;2023-08-01T05:23:45;99746.81;;;15.60;96.43
51986;BME280;38002;53.296;6.600;2023-08-01T05:28:46;99736.81;;;15.72;96.52
51986;BME280;38002;53.296;6.600;2023-08-01T05:33:46;99744.16;;;15.78;96.13
51986;BME280;38002;53.296;6.600;2023-08-01T05:38:47;99742.69;;;15.75;96.16
51986;BME280;38002;53.296;6.600;2023-08-01T05:43:48;99745.28;;;15.70;96.01
51986;BME280;38002;53.296;6.600;2023-08-01T05:48:49;99747.84;;;15.65;96.97
51986;BME280;38002;53.296;6.600;2023-08-01T05:53:50;99757.72;;;15.66;95.90
51986;BME280;38002;53.296;6.600;2023-08-01T05:58:50;99762.13;;;15.67;95.99
51986;BME280;38002;53.296;6.600;2023-08-01T06:03:51;99753.31;;;15.65;96.09
51986;BME280;38002;53.296;6.600;2023-08-01T06:08:51;99754.56;;;15.63;96.22
51986;BME280;38002;53.296;6.600;2023-08-01T06:13:52;99753.72;;;15.62;96.28
51986;BME280;38002;53.296;6.600;2023-08-01T06:18:52;99765.53;;;15.63;96.53
51986;BME280;38002;53.296;6.600;2023-08-01T06:23:53;99759.47;;;15.61;96.36
51986;BME280;38002;53.296;6.600;2023-08-01T06:28:53;99767.28;;;15.57;96.40
51986;BME280;38002;53.296;6.600;2023-08-01T06:33:54;99755.47;;;15.57;96.69
51986;BME280;38002;53.296;6.600;2023-08-01T06:38:55;99765.16;;;15.59;96.50
51986;BME280;38002;53.296;6.600;2023-08-01T06:43:55;99756.66;;;15.67;96.91
51986;BME280;38002;53.296;6.600;2023-08-01T06:48:56;99762.72;;;15.76;96.73
51986;BME280;38002;53.296;6.600;2023-08-01T06:53:56;99772.16;;;15.80;96.84
51986;BME280;38002;53.296;6.600;2023-08-01T06:58:57;99771.50;;;15.84;97.04
51986;BME280;38002;53.296;6.600;2023-08-01T07:03:57;99769.09;;;15.95;96.79
51986;BME280;38002;53.296;6.600;2023-08-01T07:08:58;99760.13;;;16.06;96.48
51986;BME280;38002;53.296;6.600;2023-08-01T07:13:58;99767.66;;;16.17;96.85
51986;BME280;38002;53.296;6.600;2023-08-01T07:19:02;99765.66;;;16.24;96.21
51986;BME280;38002;53.296;6.600;2023-08-01T07:24:02;99763.31;;;16.27;95.71
51986;BME280;38002;53.296;6.600;2023-08-01T07:29:03;99753.13;;;16.34;96.00
51986;BME280;38002;53.296;6.600;2023-08-01T07:34:03;99746.50;;;16.42;95.85
51986;BME280;38002;53.296;6.600;2023-08-01T07:39:04;99749.16;;;16.49;95.40
51986;BME280;38002;53.296;6.600;2023-08-01T07:44:04;99753.38;;;16.51;95.63
51986;BME280;38002;53.296;6.600;2023-08-01T07:49:05;99758.03;;;16.51;95.23
51986;BME280;38002;53.296;6.600;2023-08-01T07:54:05;99745.03;;;16.40;95.12
51986;BME280;38002;53.296;6.600;2023-08-01T07:59:06;99746.81;;;16.34;95.15
51986;BME280;38002;53.296;6.600;2023-08-01T08:04:07;99756.94;;;16.33;95.19
51986;BME280;38002;53.296;6.600;2023-08-01T08:09:07;99754.53;;;16.44;95.63
51986;BME280;38002;53.296;6.600;2023-08-01T08:14:08;99749.69;;;16.64;95.52
51986;BME280;38002;53.296;6.600;2023-08-01T08:19:08;99753.03;;;16.84;95.00
51986;BME280;38002;53.296;6.600;2023-08-01T08:24:09;99744.94;;;16.89;94.65
51986;BME280;38002;53.296;6.600;2023-08-01T08:29:09;99755.44;;;16.92;94.79
51986;BME280;38002;53.296;6.600;2023-08-01T08:34:12;99760.09;;;16.92;94.81
51986;BME280;38002;53.296;6.600;2023-08-01T08:39:13;99777.19;;;16.75;94.41
51986;BME280;38002;53.296;6.600;2023-08-01T08:44:18;99790.97;;;16.51;94.22
51986;BME280;38002;53.296;6.600;2023-08-01T08:49:21;99770.94;;;16.25;94.54
51986;BME280;38002;53.296;6.600;2023-08-01T08:54:22;99784.78;;;16.12;94.86
51986;BME280;38002;53.296;6.600;2023-08-01T08:59:25;99783.25;;;16.16;95.25
51986;BME280;38002;53.296;6.600;2023-08-01T09:04:26;99786.06;;;16.34;95.17
51986;BME280;38002;53.296;6.600;2023-08-01T09:09:28;99786.75;;;16.73;95.72
51986;BME280;38002;53.296;6.600;2023-08-01T09:14:35;99776.56;;;16.92;94.29
51986;BME280;38002;53.296;6.600;2023-08-01T09:19:41;99802.28;;;16.79;94.54
51986;BME280;38002;53.296;6.600;2023-08-01T09:24:52;99823.53;;;16.65;94.53
51986;BME280;38002;53.296;6.600;2023-08-01T09:30:06;99817.34;;;16.52;93.96
51986;BME280;38002;53.296;6.600;2023-08-01T09:35:08;99828.81;;;16.42;94.20
51986;BME280;38002;53.296;6.600;2023-08-01T09:40:09;99822.41;;;16.30;94.56
51986;BME280;38002;53.296;6.600;2023-08-01T09:45:15;99823.66;;;16.27;94.72
51986;BME280;38002;53.296;6.600;2023-08-01T09:50:23;99818.84;;;16.48;95.47
51986;BME280;38002;53.296;6.600;2023-08-01T09:55:33;99825.31;;;16.96;95.38
51986;BME280;38002;53.296;6.600;2023-08-01T10:00:34;99813.97;;;17.11;94.10
51986;BME280;38002;53.296;6.600;2023-08-01T10:05:37;99823.59;;;17.50;94.77
51986;BME280;38002;53.296;6.600;2023-08-01T10:10:39;99825.13;;;17.64;93.82
51986;BME280;38002;53.296;6.600;2023-08-01T10:15:41;99810.69;;;17.50;93.35
51986;BME280;38002;53.296;6.600;2023-08-01T10:20:42;99811.03;;;17.42;93.64
51986;BME280;38002;53.296;6.600;2023-08-01T10:25:43;99813.81;;;17.54;94.20
51986;BME280;38002;53.296;6.600;2023-08-01T10:30:44;99828.72;;;17.64;93.94
51986;BME280;38002;53.296;6.600;2023-08-01T10:35:45;99835.88;;;17.65;93.92
51986;BME280;38002;53.296;6.600;2023-08-01T10:40:45;99829.69;;;17.70;93.54
51986;BME280;38002;53.296;6.600;2023-08-01T10:45:46;99832.50;;;17.82;93.32
51986;BME280;38002;53.296;6.600;2023-08-01T10:50:56;99829.97;;;17.80;92.20
51986;BME280;38002;53.296;6.600;2023-08-01T10:55:57;99836.13;;;18.05;92.52
51986;BME280;38002;53.296;6.600;2023-08-01T11:00:58;99838.88;;;18.05;91.65
51986;BME280;38002;53.296;6.600;2023-08-01T11:05:59;99836.47;;;17.97;91.06
51986;BME280;38002;53.296;6.600;2023-08-01T11:10:59;99856.22;;;17.94;90.80
51986;BME280;38002;53.296;6.600;2023-08-01T11:16:03;99861.94;;;17.93;91.03
51986;BME280;38002;53.296;6.600;2023-08-01T11:21:05;99866.56;;;18.34;89.84
51986;BME280;38002;53.296;6.600;2023-08-01T11:26:08;99871.16;;;18.40;88.85
51986;BME280;38002;53.296;6.600;2023-08-01T11:31:13;99870.72;;;18.78;89.44
51986;BME280;38002;53.296;6.600;2023-08-01T11:36:14;99872.00;;;19.22;88.35
51986;BME280;38002;53.296;6.600;2023-08-01T11:41:14;99867.41;;;19.39;87.03
51986;BME280;38002;53.296;6.600;2023-08-01T11:46:15;99879.31;;;19.79;86.55
51986;BME280;38002;53.296;6.600;2023-08-01T11:51:16;99881.22;;;20.07;85.28
51986;BME280;38002;53.296;6.600;2023-08-01T11:56:20;99886.28;;;20.27;84.47
51986;BME280;38002;53.296;6.600;2023-08-01T12:01:22;99899.25;;;20.26;83.81
51986;BME280;38002;53.296;6.600;2023-08-01T12:06:23;99901.81;;;20.16;83.61
51986;BME280;38002;53.296;6.600;2023-08-01T12:11:27;99906.03;;;20.07;82.84
51986;BME280;38002;53.296;6.600;2023-08-01T12:16:30;99902.44;;;20.07;82.57
51986;BME280;38002;53.296;6.600;2023-08-01T12:21:32;99911.25;;;20.32;82.12
51986;BME280;38002;53.296;6.600;2023-08-01T12:26:33;99917.63;;;20.21;81.78
51986;BME280;38002;53.296;6.600;2023-08-01T12:31:34;99924.81;;;19.93;81.15
51986;BME280;38002;53.296;6.600;2023-08-01T12:36:34;99928.97;;;19.79;81.34
51986;BME280;38002;53.296;6.600;2023-08-01T12:41:35;99935.66;;;19.83;81.51
51986;BME280;38002;53.296;6.600;2023-08-01T12:46:35;99930.44;;;20.27;80.67
51986;BME280;38002;53.296;6.600;2023-08-01T12:51:36;99938.34;;;20.35;79.91
51986;BME280;38002;53.296;6.600;2023-08-01T12:56:37;99936.75;;;20.11;79.93
51986;BME280;38002;53.296;6.600;2023-08-01T13:01:37;99926.00;;;19.98;80.29
51986;BME280;38002;53.296;6.600;2023-08-01T13:06:38;99943.66;;;20.25;79.76
51986;BME280;38002;53.296;6.600;2023-08-01T13:11:38;99939.03;;;20.42;79.78
51986;BME280;38002;53.296;6.600;2023-08-01T13:16:39;99946.59;;;20.63;79.08
51986;BME280;38002;53.296;6.600;2023-08-01T13:21:39;99938.81;;;20.60;78.72
51986;BME280;38002;53.296;6.600;2023-08-01T13:26:40;99942.09;;;20.74;78.66
51986;BME280;38002;53.296;6.600;2023-08-01T13:31:40;99955.63;;;20.75;78.47
51986;BME280;38002;53.296;6.600;2023-08-01T13:36:43;99961.41;;;20.57;77.87
51986;BME280;38002;53.296;6.600;2023-08-01T13:41:43;99965.06;;;20.18;78.08
51986;BME280;38002;53.296;6.600;2023-08-01T13:46:43;99994.00;;;19.75;78.83
51986;BME280;38002;53.296;6.600;2023-08-01T13:51:45;99996.66;;;19.24;79.76
51986;BME280;38002;53.296;6.600;2023-08-01T13:56:46;99992.88;;;18.83;81.00
51986;BME280;38002;53.296;6.600;2023-08-01T14:01:46;99986.63;;;18.65;81.52
51986;BME280;38002;53.296;6.600;2023-08-01T14:06:47;99999.31;;;18.66;81.91
51986;BME280;38002;53.296;6.600;2023-08-01T14:11:48;99989.06;;;19.08;82.23
51986;BME280;38002;53.296;6.600;2023-08-01T14:16:48;99984.53;;;19.36;82.06
51986;BME280;38002;53.296;6.600;2023-08-01T14:21:49;99994.38;;;19.44;81.87
51986;BME280;38002;53.296;6.600;2023-08-01T14:26:49;100006.34;;;19.38;81.86
51986;BME280;38002;53.296;6.600;2023-08-01T14:31:51;100007.09;;;19.45;81.74
51986;BME280;38002;53.296;6.600;2023-08-01T14:36:51;100011.06;;;19.49;81.34
51986;BME280;38002;53.296;6.600;2023-08-01T14:41:52;100025.88;;;19.25;81.01
51986;BME280;38002;53.296;6.600;2023-08-01T14:46:55;100017.25;;;18.98;80.98
51986;BME280;38002;53.296;6.600;2023-08-01T14:51:55;100019.50;;;18.89;81.86
51986;BME280;38002;53.296;6.600;2023-08-01T14:56:56;100007.03;;;18.98;82.30
51986;BME280;38002;53.296;6.600;2023-08-01T15:01:57;100010.06;;;19.32;81.65
51986;BME280;38002;53.296;6.600;2023-08-01T15:06:58;100013.78;;;19.61;81.28
51986;BME280;38002;53.296;6.600;2023-08-01T15:12:00;100026.22;;;19.86;80.57
51986;BME280;38002;53.296;6.600;2023-08-01T15:17:00;100019.91;;;19.74;79.92
51986;BME280;38002;53.296;6.600;2023-08-01T15:22:01;100030.44;;;19.77;79.90
51986;BME280;38002;53.296;6.600;2023-08-01T15:27:02;100024.53;;;19.97;78.75
51986;BME280;38002;53.296;6.600;2023-08-01T15:32:03;100018.75;;;20.10;78.39
51986;BME280;38002;53.296;6.600;2023-08-01T15:37:07;100024.84;;;20.12;78.69
51986;BME280;38002;53.296;6.600;2023-08-01T15:42:07;100028.06;;;20.21;77.98
51986;BME280;38002;53.296;6.600;2023-08-01T15:47:08;100023.50;;;20.26;77.61
51986;BME280;38002;53.296;6.600;2023-08-01T15:52:08;100031.41;;;20.34;77.53
51986;BME280;38002;53.296;6.600;2023-08-01T15:57:09;100038.59;;;20.24;77.32
51986;BME280;38002;53.296;6.600;2023-08-01T16:02:09;100039.34;;;20.19;77.57
51986;BME280;38002;53.296;6.600;2023-08-01T16:07:10;100043.31;;;20.12;77.30
51986;BME280;38002;53.296;6.600;2023-08-01T16:12:10;100051.50;;;20.07;77.03
51986;BME280;38002;53.296;6.600;2023-08-01T16:17:11;100062.22;;;19.91;76.92
51986;BME280;38002;53.296;6.600;2023-08-01T16:22:12;100063.44;;;19.72;76.59
51986;BME280;38002;53.296;6.600;2023-08-01T16:27:12;100069.09;;;19.54;76.21
51986;BME280;38002;53.296;6.600;2023-08-01T16:32:13;100059.00;;;19.48;75.91
51986;BME280;38002;53.296;6.600;2023-08-01T16:37:14;100066.53;;;19.41;76.04
51986;BME280;38002;53.296;6.600;2023-08-01T16:42:16;100061.75;;;19.36;76.19
51986;BME280;38002;53.296;6.600;2023-08-01T16:47:17;100061.47;;;19.26;75.67
51986;BME280;38002;53.296;6.600;2023-08-01T16:52:18;100065.53;;;19.12;76.22
51986;BME280;38002;53.296;6.600;2023-08-01T16:57:18;100071.25;;;18.99;76.05
51986;BME280;38002;53.296;6.600;2023-08-01T17:02:18;100069.69;;;18.91;76.60
51986;BME280;38002;53.296;6.600;2023-08-01T17:07:19;100073.50;;;18.90;76.36
51986;BME280;38002;53.296;6.600;2023-08-01T17:12:19;100075.69;;;18.88;76.07
51986;BME280;38002;53.296;6.600;2023-08-01T17:17:20;100077.66;;;18.81;76.03
51986;BME280;38002;53.296;6.600;2023-08-01T17:22:20;100073.25;;;18.80;76.14
51986;BME280;38002;53.296;6.600;2023-08-01T17:27:23;100069.66;;;18.80;76.50
51986;BME280;38002;53.296;6.600;2023-08-01T17:32:24;100067.00;;;18.73;76.08
51986;BME280;38002;53.296;6.600;2023-08-01T17:37:24;100082.41;;;18.63;76.19
51986;BME280;38002;53.296;6.600;2023-08-01T17:42:24;100079.56;;;18.51;76.53
51986;BME280;38002;53.296;6.600;2023-08-01T17:47:26;100091.03;;;18.48;76.58
51986;BME280;38002;53.296;6.600;2023-08-01T17:52:27;100089.13;;;18.48;76.86
51986;BME280;38002;53.296;6.600;2023-08-01T17:57:28;100093.19;;;18.46;76.99
51986;BME280;38002;53.296;6.600;2023-08-01T18:02:28;100088.63;;;18.40;77.15
51986;BME280;38002;53.296;6.600;2023-08-01T18:07:29;100094.50;;;18.25;76.94
51986;BME280;38002;53.296;6.600;2023-08-01T18:12:30;100092.63;;;18.07;77.21
51986;BME280;38002;53.296;6.600;2023-08-01T18:17:31;100087.66;;;17.98;77.27
51986;BME280;38002;53.296;6.600;2023-08-01T18:22:32;100087.13;;;17.89;77.93
51986;BME280;38002;53.296;6.600;2023-08-01T18:27:33;100093.91;;;17.87;78.04
51986;BME280;38002;53.296;6.600;2023-08-01T18:32:33;100092.94;;;17.81;78.59
51986;BME280;38002;53.296;6.600;2023-08-01T18:37:34;100094.03;;;17.74;78.77
51986;BME280;38002;53.296;6.600;2023-08-01T18:42:34;100092.50;;;17.59;78.94
51986;BME280;38002;53.296;6.600;2023-08-01T18:47:38;100101.22;;;17.50;79.27
51986;BME280;38002;53.296;6.600;2023-08-01T18:52:39;100100.06;;;17.39;79.81
51986;BME280;38002;53.296;6.600;2023-08-01T18:57:47;100107.72;;;17.31;80.58
51986;BME280;38002;53.296;6.600;2023-08-01T19:02:48;100117.31;;;17.21;80.36
51986;BME280;38002;53.296;6.600;2023-08-01T19:07:49;100124.19;;;17.12;81.03
51986;BME280;38002;53.296;6.600;2023-08-01T19:12:49;100129.75;;;16.99;81.60
51986;BME280;38002;53.296;6.600;2023-08-01T19:17:53;100139.53;;;16.89;82.36
51986;BME280;38002;53.296;6.600;2023-08-01T19:22:54;100133.25;;;16.82;82.67
51986;BME280;38002;53.296;6.600;2023-08-01T19:27:55;100140.91;;;16.73;83.17
51986;BME280;38002;53.296;6.600;2023-08-01T19:32:56;100149.81;;;16.68;83.62
51986;BME280;38002;53.296;6.600;2023-08-01T19:37:58;100145.41;;;16.61;84.16
51986;BME280;38002;53.296;6.600;2023-08-01T19:42:59;100151.94;;;16.53;84.44
51986;BME280;38002;53.296;6.600;2023-08-01T19:47:59;100155.78;;;16.46;84.92
51986;BME280;38002;53.296;6.600;2023-08-01T19:53:00;100168.25;;;16.42;85.26
51986;BME280;38002;53.296;6.600;2023-08-01T19:58:06;100183.66;;;16.43;85.12
51986;BME280;38002;53.296;6.600;2023-08-01T20:03:07;100184.91;;;16.40;85.42
51986;BME280;38002;53.296;6.600;2023-08-01T20:08:07;100187.25;;;16.37;85.93
51986;BME280;38002;53.296;6.600;2023-08-01T20:13:07;100196.38;;;16.30;86.16
51986;BME280;38002;53.296;6.600;2023-08-01T20:18:08;100204.81;;;16.22;86.91
51986;BME280;38002;53.296;6.600;2023-08-01T20:23:09;100198.72;;;16.20;87.21
51986;BME280;38002;53.296;6.600;2023-08-01T20:28:13;100198.91;;;16.19;87.04
51986;BME280;38002;53.296;6.600;2023-08-01T20:33:14;100195.75;;;16.15;87.23
51986;BME280;38002;53.296;6.600;2023-08-01T20:38:15;100191.31;;;16.14;87.71
51986;BME280;38002;53.296;6.600;2023-08-01T20:43:16;100187.53;;;16.15;87.75
51986;BME280;38002;53.296;6.600;2023-08-01T20:48:16;100208.88;;;16.13;88.26
51986;BME280;38002;53.296;6.600;2023-08-01T20:53:17;100199.78;;;16.13;88.34
51986;BME280;38002;53.296;6.600;2023-08-01T20:58:19;100198.94;;;16.12;88.32
51986;BME280;38002;53.296;6.600;2023-08-01T21:03:20;100203.38;;;16.13;88.48
51986;BME280;38002;53.296;6.600;2023-08-01T21:08:22;100201.47;;;16.07;91.53
51986;BME280;38002;53.296;6.600;2023-08-01T21:13:22;100203.16;;;16.08;89.64
51986;BME280;38002;53.296;6.600;2023-08-01T21:18:23;100202.53;;;16.06;89.21
51986;BME280;38002;53.296;6.600;2023-08-01T21:23:28;100211.41;;;16.08;89.06
51986;BME280;38002;53.296;6.600;2023-08-01T21:28:28;100198.75;;;16.07;89.20
51986;BME280;38002;53.296;6.600;2023-08-01T21:33:29;100202.53;;;16.06;89.67
51986;BME280;38002;53.296;6.600;2023-08-01T21:38:30;100206.13;;;16.07;89.85
51986;BME280;38002;53.296;6.600;2023-08-01T21:43:30;100197.69;;;16.08;89.92
51986;BME280;38002;53.296;6.600;2023-08-01T21:48:31;100200.44;;;16.08;89.92
51986;BME280;38002;53.296;6.600;2023-08-01T21:53:32;100205.91;;;16.08;90.14
51986;BME280;38002;53.296;6.600;2023-08-01T21:58:32;100200.63;;;16.07;90.39
51986;BME280;38002;53.296;6.600;2023-08-01T22:03:33;100205.91;;;16.08;90.71
51986;BME280;38002;53.296;6.600;2023-08-01T22:08:33;100202.31;;;16.08;90.61
51986;BME280;38002;53.296;6.600;2023-08-01T22:13:33;100207.56;;;16.09;90.84
51986;BME280;38002;53.296;6.600;2023-08-01T22:18:34;100212.00;;;16.10;90.96
51986;BME280;38002;53.296;6.600;2023-08-01T22:23:35;100218.16;;;16.12;91.15
51986;BME280;38002;53.296;6.600;2023-08-01T22:28:36;100217.09;;;16.13;91.26
51986;BME280;38002;53.296;6.600;2023-08-01T22:33:36;100206.94;;;16.14;91.28
51986;BME280;38002;53.296;6.600;2023-08-01T22:38:36;100210.31;;;16.16;91.44
51986;BME280;38002;53.296;6.600;2023-08-01T22:43:37;100214.97;;;16.15;91.55
51986;BME280;38002;53.296;6.600;2023-08-01T22:48:38;100204.88;;;16.03;91.56
51986;BME280;38002;53.296;6.600;2023-08-01T22:53:46;100216.47;;;16.05;91.62
51986;BME280;38002;53.296;6.600;2023-08-01T22:58:47;100218.78;;;16.08;91.81
51986;BME280;38002;53.296;6.600;2023-08-01T23:03:48;100228.72;;;16.09;91.39
51986;BME280;38002;53.296;6.600;2023-08-01T23:08:49;100220.66;;;16.01;91.81
51986;BME280;38002;53.296;6.600;2023-08-01T23:13:51;100225.13;;;15.95;91.90
51986;BME280;38002;53.296;6.600;2023-08-01T23:18:52;100221.31;;;15.89;91.68
51986;BME280;38002;53.296;6.600;2023-08-01T23:23:52;100220.06;;;15.85;91.78
51986;BME280;38002;53.296;6.600;2023-08-01T23:28:53;100215.88;;;15.83;91.72
51986;BME280;38002;53.296;6.600;2023-08-01T23:33:53;100216.28;;;15.80;91.92
51986;BME280;38002;53.296;6.600;2023-08-01T23:38:53;100217.75;;;15.76;92.06
51986;BME280;38002;53.296;6.600;2023-08-01T23:43:54;100223.47;;;15.74;92.28
51986;BME280;38002;53.296;6.600;2023-08-01T23:48:54;100208.25;;;15.72;92.54
51986;BME280;38002;53.296;6.600;2023-08-01T23:53:55;100218.78;;;15.75;92.64
51986;BME280;38002;53.296;6.600;2023-08-01T23:58:56;100216.06;;;15.75;92.43
